sensor_id;sensor_type;location;lat;lon;timestamp;pressure;altitude;pressure_sealevel;temperature
69435;BMP180;56625;54.322;18.582;2023-09-19T00:00:57;99879.00;;;20.16
69435;BMP180;56625;54.322;18.582;2023-09-19T00:03:38;99880.20;;;20.20
69435;BMP180;56625;54.322;18.582;2023-09-19T00:06:07;99885.00;;;20.20
69435;BMP180;56625;54.322;18.582;2023-09-19T00:08:36;99889.60;;;20.20
69435;BMP180;56625;54.322;18.582;2023-09-19T00:11:04;99885.60;;;20.20
69435;BMP180;56625;54.322;18.582;2023-09-19T00:13:34;99891.00;;;20.20
69435;BMP180;56625;54.322;18.582;2023-09-19T00:16:11;99892.40;;;20.20
69435;BMP180;56625;54.322;18.582;2023-09-19T00:18:39;99889.40;;;20.30
69435;BMP180;56625;54.322;18.582;2023-09-19T00:21:07;99887.80;;;20.30
69435;BMP180;56625;54.322;18.582;2023-09-19T00:23:35;99885.80;;;20.30
69435;BMP180;56625;54.322;18.582;2023-09-19T00:26:03;99882.20;;;20.30
69435;BMP180;56625;54.322;18.582;2023-09-19T00:28:32;99887.40;;;20.30
69435;BMP180;56625;54.322;18.582;2023-09-19T00:31:00;99881.40;;;20.36
69435;BMP180;56625;54.322;18.582;2023-09-19T00:33:30;99882.60;;;20.40
69435;BMP180;56625;54.322;18.582;2023-09-19T00:35:58;99885.20;;;20.40
69435;BMP180;56625;54.322;18.582;2023-09-19T00:38:26;99885.40;;;20.40
69435;BMP180;56625;54.322;18.582;2023-09-19T00:40:56;99883.20;;;20.40
69435;BMP180;56625;54.322;18.582;2023-09-19T00:43:27;99885.40;;;20.40
69435;BMP180;56625;54.322;18.582;2023-09-19T00:45:56;99883.20;;;20.40
69435;BMP180;56625;54.322;18.582;2023-09-19T00:48:25;99875.60;;;20.40
69435;BMP180;56625;54.322;18.582;2023-09-19T00:51:02;99875.20;;;20.40
69435;BMP180;56625;54.322;18.582;2023-09-19T00:53:32;99876.40;;;20.40
69435;BMP180;56625;54.322;18.582;2023-09-19T00:56:03;99881.60;;;20.40
69435;BMP180;56625;54.322;18.582;2023-09-19T00:58:36;99879.60;;;20.40
69435;BMP180;56625;54.322;18.582;2023-09-19T01:01:05;99874.60;;;20.40
69435;BMP180;56625;54.322;18.582;2023-09-19T01:03:37;99872.60;;;20.40
69435;BMP180;56625;54.322;18.582;2023-09-19T01:06:06;99870.40;;;20.40
69435;BMP180;56625;54.322;18.582;2023-09-19T01:08:36;99859.60;;;20.40
69435;BMP180;56625;54.322;18.582;2023-09-19T01:14:22;99862.80;;;20.20
69435;BMP180;56625;54.322;18.582;2023-09-19T01:17:15;99855.80;;;20.20
69435;BMP180;56625;54.322;18.582;2023-09-19T01:20:11;99862.80;;;20.10
69435;BMP180;56625;54.322;18.582;2023-09-19T01:23:24;99865.20;;;20.00
69435;BMP180;56625;54.322;18.582;2023-09-19T01:26:22;99868.80;;;19.80
69435;BMP180;56625;54.322;18.582;2023-09-19T01:29:23;99868.60;;;19.70
69435;BMP180;56625;54.322;18.582;2023-09-19T01:32:01;99865.40;;;19.60
69435;BMP180;56625;54.322;18.582;2023-09-19T01:34:49;99864.00;;;19.60
69435;BMP180;56625;54.322;18.582;2023-09-19T01:37:20;99864.80;;;19.60
69435;BMP180;56625;54.322;18.582;2023-09-19T01:39:55;99861.60;;;19.60
69435;BMP180;56625;54.322;18.582;2023-09-19T01:45:12;99862.00;;;19.60
69435;BMP180;56625;54.322;18.582;2023-09-19T01:51:01;99860.00;;;19.60
69435;BMP180;56625;54.322;18.582;2023-09-19T01:53:40;99855.00;;;19.60
69435;BMP180;56625;54.322;18.582;2023-09-19T01:56:21;99860.40;;;19.60
69435;BMP180;56625;54.322;18.582;2023-09-19T01:58:56;99863.20;;;19.60
69435;BMP180;56625;54.322;18.582;2023-09-19T02:01:28;99849.40;;;19.60
69435;BMP180;56625;54.322;18.582;2023-09-19T02:03:58;99849.80;;;19.60
69435;BMP180;56625;54.322;18.582;2023-09-19T02:06:26;99847.20;;;19.60
69435;BMP180;56625;54.322;18.582;2023-09-19T02:08:55;99840.20;;;19.60
69435;BMP180;56625;54.322;18.582;2023-09-19T02:11:23;99839.60;;;19.60
69435;BMP180;56625;54.322;18.582;2023-09-19T02:13:52;99841.20;;;19.60
69435;BMP180;56625;54.322;18.582;2023-09-19T02:16:22;99839.40;;;19.70
69435;BMP180;56625;54.322;18.582;2023-09-19T02:18:50;99838.20;;;19.70
69435;BMP180;56625;54.322;18.582;2023-09-19T02:21:18;99838.20;;;19.80
69435;BMP180;56625;54.322;18.582;2023-09-19T02:23:46;99831.80;;;19.90
69435;BMP180;56625;54.322;18.582;2023-09-19T02:26:15;99828.00;;;19.90
69435;BMP180;56625;54.322;18.582;2023-09-19T02:28:44;99827.00;;;20.00
69435;BMP180;56625;54.322;18.582;2023-09-19T02:31:13;99833.40;;;20.00
69435;BMP180;56625;54.322;18.582;2023-09-19T02:33:42;99833.60;;;20.00
69435;BMP180;56625;54.322;18.582;2023-09-19T02:36:11;99836.80;;;20.02
69435;BMP180;56625;54.322;18.582;2023-09-19T02:38:39;99830.40;;;20.10
69435;BMP180;56625;54.322;18.582;2023-09-19T02:41:07;99837.40;;;20.10
69435;BMP180;56625;54.322;18.582;2023-09-19T02:43:35;99834.80;;;20.10
69435;BMP180;56625;54.322;18.582;2023-09-19T02:46:03;99830.40;;;20.10
69435;BMP180;56625;54.322;18.582;2023-09-19T02:48:31;99818.80;;;20.10
69435;BMP180;56625;54.322;18.582;2023-09-19T02:50:59;99810.40;;;20.10
69435;BMP180;56625;54.322;18.582;2023-09-19T02:53:28;99812.40;;;20.10
69435;BMP180;56625;54.322;18.582;2023-09-19T02:55:56;99799.20;;;20.10
69435;BMP180;56625;54.322;18.582;2023-09-19T02:58:24;99800.40;;;20.10
69435;BMP180;56625;54.322;18.582;2023-09-19T03:00:53;99800.00;;;20.10
69435;BMP180;56625;54.322;18.582;2023-09-19T03:03:23;99792.00;;;20.10
69435;BMP180;56625;54.322;18.582;2023-09-19T03:05:51;99792.00;;;20.10
69435;BMP180;56625;54.322;18.582;2023-09-19T03:08:22;99788.00;;;20.10
69435;BMP180;56625;54.322;18.582;2023-09-19T03:10:51;99790.00;;;20.08
69435;BMP180;56625;54.322;18.582;2023-09-19T03:13:19;99781.80;;;20.10
69435;BMP180;56625;54.322;18.582;2023-09-19T03:15:48;99775.80;;;20.00
69435;BMP180;56625;54.322;18.582;2023-09-19T03:18:18;99777.40;;;20.00
69435;BMP180;56625;54.322;18.582;2023-09-19T03:20:54;99771.00;;;20.00
69435;BMP180;56625;54.322;18.582;2023-09-19T03:23:23;99776.80;;;19.92
69435;BMP180;56625;54.322;18.582;2023-09-19T03:25:51;99765.40;;;19.90
69435;BMP180;56625;54.322;18.582;2023-09-19T03:28:20;99763.40;;;19.80
69435;BMP180;56625;54.322;18.582;2023-09-19T03:31:02;99768.40;;;19.80
69435;BMP180;56625;54.322;18.582;2023-09-19T03:33:30;99762.20;;;19.72
69435;BMP180;56625;54.322;18.582;2023-09-19T03:36:03;99771.60;;;19.70
69435;BMP180;56625;54.322;18.582;2023-09-19T03:38:35;99771.20;;;19.66
69435;BMP180;56625;54.322;18.582;2023-09-19T03:41:03;99763.40;;;19.60
69435;BMP180;56625;54.322;18.582;2023-09-19T03:43:32;99765.40;;;19.60
69435;BMP180;56625;54.322;18.582;2023-09-19T03:46:03;99759.20;;;19.60
69435;BMP180;56625;54.322;18.582;2023-09-19T03:48:33;99762.60;;;19.60
69435;BMP180;56625;54.322;18.582;2023-09-19T03:51:02;99763.40;;;19.60
69435;BMP180;56625;54.322;18.582;2023-09-19T03:53:30;99769.80;;;19.50
69435;BMP180;56625;54.322;18.582;2023-09-19T03:55:59;99762.80;;;19.50
69435;BMP180;56625;54.322;18.582;2023-09-19T03:58:28;99755.20;;;19.50
69435;BMP180;56625;54.322;18.582;2023-09-19T04:00:56;99761.80;;;19.46
69435;BMP180;56625;54.322;18.582;2023-09-19T04:03:24;99761.20;;;19.40
69435;BMP180;56625;54.322;18.582;2023-09-19T04:06:02;99756.80;;;19.40
69435;BMP180;56625;54.322;18.582;2023-09-19T04:08:30;99754.80;;;19.40
69435;BMP180;56625;54.322;18.582;2023-09-19T04:10:58;99752.00;;;19.40
69435;BMP180;56625;54.322;18.582;2023-09-19T04:13:26;99760.40;;;19.40
69435;BMP180;56625;54.322;18.582;2023-09-19T04:15:54;99759.80;;;19.50
69435;BMP180;56625;54.322;18.582;2023-09-19T04:18:22;99761.00;;;19.68
69435;BMP180;56625;54.322;18.582;2023-09-19T04:20:54;99763.60;;;19.70
69435;BMP180;56625;54.322;18.582;2023-09-19T04:23:23;99766.60;;;19.70
69435;BMP180;56625;54.322;18.582;2023-09-19T04:25:51;99762.60;;;19.70
69435;BMP180;56625;54.322;18.582;2023-09-19T04:28:19;99768.40;;;19.70
69435;BMP180;56625;54.322;18.582;2023-09-19T04:30:47;99770.00;;;19.66
69435;BMP180;56625;54.322;18.582;2023-09-19T04:33:15;99772.20;;;19.60
69435;BMP180;56625;54.322;18.582;2023-09-19T04:35:44;99767.20;;;19.60
69435;BMP180;56625;54.322;18.582;2023-09-19T04:38:12;99770.20;;;19.70
69435;BMP180;56625;54.322;18.582;2023-09-19T04:40:39;99769.20;;;19.70
69435;BMP180;56625;54.322;18.582;2023-09-19T04:43:07;99767.20;;;19.60
69435;BMP180;56625;54.322;18.582;2023-09-19T04:45:39;99774.00;;;19.50
69435;BMP180;56625;54.322;18.582;2023-09-19T04:48:10;99774.80;;;19.40
69435;BMP180;56625;54.322;18.582;2023-09-19T04:50:38;99777.20;;;19.40
69435;BMP180;56625;54.322;18.582;2023-09-19T04:53:06;99780.80;;;19.30
69435;BMP180;56625;54.322;18.582;2023-09-19T04:55:34;99788.60;;;19.30
69435;BMP180;56625;54.322;18.582;2023-09-19T04:58:03;99786.20;;;19.18
69435;BMP180;56625;54.322;18.582;2023-09-19T05:00:31;99791.60;;;19.10
69435;BMP180;56625;54.322;18.582;2023-09-19T05:03:03;99794.20;;;19.00
69435;BMP180;56625;54.322;18.582;2023-09-19T05:05:31;99792.80;;;19.00
69435;BMP180;56625;54.322;18.582;2023-09-19T05:08:00;99795.20;;;18.90
69435;BMP180;56625;54.322;18.582;2023-09-19T05:10:34;99798.00;;;18.80
69435;BMP180;56625;54.322;18.582;2023-09-19T05:13:05;99795.80;;;18.80
69435;BMP180;56625;54.322;18.582;2023-09-19T05:15:35;99788.40;;;18.74
69435;BMP180;56625;54.322;18.582;2023-09-19T05:18:03;99786.80;;;18.70
69435;BMP180;56625;54.322;18.582;2023-09-19T05:20:34;99789.80;;;18.70
69435;BMP180;56625;54.322;18.582;2023-09-19T05:23:05;99789.00;;;18.60
69435;BMP180;56625;54.322;18.582;2023-09-19T05:25:40;99788.60;;;18.60
69435;BMP180;56625;54.322;18.582;2023-09-19T05:28:10;99782.00;;;18.60
69435;BMP180;56625;54.322;18.582;2023-09-19T05:30:40;99780.00;;;18.60
69435;BMP180;56625;54.322;18.582;2023-09-19T05:33:09;99772.40;;;18.66
69435;BMP180;56625;54.322;18.582;2023-09-19T05:35:37;99777.60;;;18.72
69435;BMP180;56625;54.322;18.582;2023-09-19T05:38:08;99778.60;;;18.80
69435;BMP180;56625;54.322;18.582;2023-09-19T05:40:40;99780.40;;;18.90
69435;BMP180;56625;54.322;18.582;2023-09-19T05:43:13;99795.80;;;18.90
69435;BMP180;56625;54.322;18.582;2023-09-19T05:45:42;99795.40;;;18.90
69435;BMP180;56625;54.322;18.582;2023-09-19T05:48:14;99793.20;;;18.88
69435;BMP180;56625;54.322;18.582;2023-09-19T05:50:44;99798.40;;;18.80
69435;BMP180;56625;54.322;18.582;2023-09-19T05:53:15;99794.40;;;18.80
69435;BMP180;56625;54.322;18.582;2023-09-19T05:55:43;99797.60;;;18.80
69435;BMP180;56625;54.322;18.582;2023-09-19T05:58:11;99802.40;;;18.80
69435;BMP180;56625;54.322;18.582;2023-09-19T06:00:41;99808.20;;;18.80
69435;BMP180;56625;54.322;18.582;2023-09-19T06:03:12;99799.00;;;18.92
69435;BMP180;56625;54.322;18.582;2023-09-19T06:05:42;99806.20;;;19.10
69435;BMP180;56625;54.322;18.582;2023-09-19T06:08:10;99807.80;;;19.20
69435;BMP180;56625;54.322;18.582;2023-09-19T06:10:38;99806.20;;;19.20
69435;BMP180;56625;54.322;18.582;2023-09-19T06:13:06;99809.80;;;19.20
69435;BMP180;56625;54.322;18.582;2023-09-19T06:15:37;99803.60;;;19.20
69435;BMP180;56625;54.322;18.582;2023-09-19T06:18:11;99802.20;;;19.20
69435;BMP180;56625;54.322;18.582;2023-09-19T06:20:43;99814.20;;;19.20
69435;BMP180;56625;54.322;18.582;2023-09-19T06:23:13;99806.20;;;19.20
69435;BMP180;56625;54.322;18.582;2023-09-19T06:25:41;99804.00;;;19.26
69435;BMP180;56625;54.322;18.582;2023-09-19T06:28:11;99811.00;;;19.30
69435;BMP180;56625;54.322;18.582;2023-09-19T06:30:42;99820.20;;;19.20
69435;BMP180;56625;54.322;18.582;2023-09-19T06:33:10;99815.60;;;19.20
69435;BMP180;56625;54.322;18.582;2023-09-19T06:35:42;99821.00;;;19.10
69435;BMP180;56625;54.322;18.582;2023-09-19T06:38:12;99820.20;;;19.10
69435;BMP180;56625;54.322;18.582;2023-09-19T06:40:41;99829.60;;;19.20
69435;BMP180;56625;54.322;18.582;2023-09-19T06:43:10;99827.00;;;19.20
69435;BMP180;56625;54.322;18.582;2023-09-19T06:45:39;99818.00;;;19.30
69435;BMP180;56625;54.322;18.582;2023-09-19T06:48:07;99814.20;;;19.30
69435;BMP180;56625;54.322;18.582;2023-09-19T06:50:37;99813.80;;;19.30
69435;BMP180;56625;54.322;18.582;2023-09-19T06:53:06;99812.40;;;19.30
69435;BMP180;56625;54.322;18.582;2023-09-19T06:55:34;99813.20;;;19.40
69435;BMP180;56625;54.322;18.582;2023-09-19T06:58:03;99823.80;;;19.40
69435;BMP180;56625;54.322;18.582;2023-09-19T07:00:34;99827.80;;;19.40
69435;BMP180;56625;54.322;18.582;2023-09-19T07:03:06;99824.60;;;19.40
69435;BMP180;56625;54.322;18.582;2023-09-19T07:05:41;99825.40;;;19.46
69435;BMP180;56625;54.322;18.582;2023-09-19T07:08:11;99824.60;;;19.50
69435;BMP180;56625;54.322;18.582;2023-09-19T07:10:42;99829.80;;;19.50
69435;BMP180;56625;54.322;18.582;2023-09-19T07:13:17;99826.80;;;19.50
69435;BMP180;56625;54.322;18.582;2023-09-19T07:15:45;99825.40;;;19.60
69435;BMP180;56625;54.322;18.582;2023-09-19T07:18:19;99824.40;;;19.60
69435;BMP180;56625;54.322;18.582;2023-09-19T07:20:48;99824.40;;;19.70
69435;BMP180;56625;54.322;18.582;2023-09-19T07:23:21;99821.80;;;19.80
69435;BMP180;56625;54.322;18.582;2023-09-19T07:25:50;99825.20;;;19.90
69435;BMP180;56625;54.322;18.582;2023-09-19T07:28:18;99830.20;;;20.00
69435;BMP180;56625;54.322;18.582;2023-09-19T07:30:47;99825.60;;;20.10
69435;BMP180;56625;54.322;18.582;2023-09-19T07:33:15;99829.40;;;20.14
69435;BMP180;56625;54.322;18.582;2023-09-19T07:35:46;99826.20;;;20.20
69435;BMP180;56625;54.322;18.582;2023-09-19T07:38:15;99822.40;;;20.20
69435;BMP180;56625;54.322;18.582;2023-09-19T07:40:45;99822.60;;;20.20
69435;BMP180;56625;54.322;18.582;2023-09-19T07:43:13;99826.20;;;20.20
69435;BMP180;56625;54.322;18.582;2023-09-19T07:45:41;99830.80;;;20.20
69435;BMP180;56625;54.322;18.582;2023-09-19T07:48:09;99827.20;;;20.10
69435;BMP180;56625;54.322;18.582;2023-09-19T07:50:42;99827.80;;;20.10
69435;BMP180;56625;54.322;18.582;2023-09-19T07:53:11;99832.80;;;20.00
69435;BMP180;56625;54.322;18.582;2023-09-19T07:55:41;99834.20;;;20.00
69435;BMP180;56625;54.322;18.582;2023-09-19T07:58:10;99828.40;;;19.90
69435;BMP180;56625;54.322;18.582;2023-09-19T08:00:38;99833.80;;;19.90
69435;BMP180;56625;54.322;18.582;2023-09-19T08:03:06;99840.60;;;19.90
69435;BMP180;56625;54.322;18.582;2023-09-19T08:05:44;99839.40;;;19.90
69435;BMP180;56625;54.322;18.582;2023-09-19T08:08:13;99843.60;;;19.90
69435;BMP180;56625;54.322;18.582;2023-09-19T08:10:43;99846.00;;;19.88
69435;BMP180;56625;54.322;18.582;2023-09-19T08:13:14;99847.40;;;19.90
69435;BMP180;56625;54.322;18.582;2023-09-19T08:15:44;99843.60;;;19.90
69435;BMP180;56625;54.322;18.582;2023-09-19T08:18:15;99839.20;;;19.90
69435;BMP180;56625;54.322;18.582;2023-09-19T08:20:50;99836.00;;;19.92
69435;BMP180;56625;54.322;18.582;2023-09-19T08:23:19;99847.40;;;20.20
69435;BMP180;56625;54.322;18.582;2023-09-19T08:25:48;99840.80;;;20.50
69435;BMP180;56625;54.322;18.582;2023-09-19T08:28:16;99842.00;;;20.70
69435;BMP180;56625;54.322;18.582;2023-09-19T08:30:50;99848.00;;;21.06
69435;BMP180;56625;54.322;18.582;2023-09-19T08:33:19;99846.40;;;21.30
69435;BMP180;56625;54.322;18.582;2023-09-19T08:35:47;99842.40;;;21.30
69435;BMP180;56625;54.322;18.582;2023-09-19T08:38:15;99843.40;;;21.26
69435;BMP180;56625;54.322;18.582;2023-09-19T08:40:43;99853.00;;;21.20
69435;BMP180;56625;54.322;18.582;2023-09-19T08:43:11;99857.40;;;21.10
69435;BMP180;56625;54.322;18.582;2023-09-19T08:45:40;99862.40;;;21.06
69435;BMP180;56625;54.322;18.582;2023-09-19T08:48:26;99863.40;;;21.10
69435;BMP180;56625;54.322;18.582;2023-09-19T08:51:41;99852.20;;;21.16
69435;BMP180;56625;54.322;18.582;2023-09-19T08:54:25;99852.00;;;21.20
69435;BMP180;56625;54.322;18.582;2023-09-19T08:57:06;99856.60;;;21.40
69435;BMP180;56625;54.322;18.582;2023-09-19T08:59:38;99858.40;;;21.52
69435;BMP180;56625;54.322;18.582;2023-09-19T09:02:12;99861.80;;;21.70
69435;BMP180;56625;54.322;18.582;2023-09-19T09:04:43;99869.60;;;21.90
69435;BMP180;56625;54.322;18.582;2023-09-19T09:07:13;99861.00;;;21.90
69435;BMP180;56625;54.322;18.582;2023-09-19T09:09:41;99866.00;;;21.70
69435;BMP180;56625;54.322;18.582;2023-09-19T09:12:30;99867.20;;;21.80
69435;BMP180;56625;54.322;18.582;2023-09-19T09:14:58;99867.80;;;22.00
69435;BMP180;56625;54.322;18.582;2023-09-19T09:17:26;99857.40;;;22.20
69435;BMP180;56625;54.322;18.582;2023-09-19T09:19:55;99862.40;;;22.34
69435;BMP180;56625;54.322;18.582;2023-09-19T09:22:23;99866.00;;;22.32
69435;BMP180;56625;54.322;18.582;2023-09-19T09:24:54;99872.60;;;22.40
69435;BMP180;56625;54.322;18.582;2023-09-19T09:27:25;99871.60;;;22.50
69435;BMP180;56625;54.322;18.582;2023-09-19T09:29:53;99867.80;;;22.60
69435;BMP180;56625;54.322;18.582;2023-09-19T09:32:31;99879.40;;;22.50
69435;BMP180;56625;54.322;18.582;2023-09-19T09:35:10;99886.80;;;22.60
69435;BMP180;56625;54.322;18.582;2023-09-19T09:37:38;99879.60;;;22.70
69435;BMP180;56625;54.322;18.582;2023-09-19T09:40:07;99877.40;;;22.80
69435;BMP180;56625;54.322;18.582;2023-09-19T09:42:41;99884.20;;;22.80
69435;BMP180;56625;54.322;18.582;2023-09-19T09:45:23;99881.80;;;22.80
69435;BMP180;56625;54.322;18.582;2023-09-19T09:48:01;99887.40;;;22.66
69435;BMP180;56625;54.322;18.582;2023-09-19T09:50:47;99888.40;;;22.44
69435;BMP180;56625;54.322;18.582;2023-09-19T09:53:27;99883.00;;;22.30
69435;BMP180;56625;54.322;18.582;2023-09-19T09:56:06;99889.00;;;22.30
69435;BMP180;56625;54.322;18.582;2023-09-19T09:58:58;99893.80;;;22.40
69435;BMP180;56625;54.322;18.582;2023-09-19T10:01:27;99895.40;;;22.40
69435;BMP180;56625;54.322;18.582;2023-09-19T10:03:59;99892.40;;;22.40
69435;BMP180;56625;54.322;18.582;2023-09-19T10:06:41;99896.40;;;22.40
69435;BMP180;56625;54.322;18.582;2023-09-19T10:09:14;99904.20;;;22.14
69435;BMP180;56625;54.322;18.582;2023-09-19T10:11:47;99910.60;;;22.00
69435;BMP180;56625;54.322;18.582;2023-09-19T10:14:26;99916.20;;;21.90
69435;BMP180;56625;54.322;18.582;2023-09-19T10:16:59;99920.00;;;21.80
69435;BMP180;56625;54.322;18.582;2023-09-19T10:19:46;99925.00;;;21.70
69435;BMP180;56625;54.322;18.582;2023-09-19T10:22:19;99932.00;;;21.70
69435;BMP180;56625;54.322;18.582;2023-09-19T10:24:51;99938.60;;;21.70
69435;BMP180;56625;54.322;18.582;2023-09-19T10:27:31;99944.20;;;21.70
69435;BMP180;56625;54.322;18.582;2023-09-19T10:30:09;99942.60;;;21.70
69435;BMP180;56625;54.322;18.582;2023-09-19T10:32:41;99952.20;;;21.80
69435;BMP180;56625;54.322;18.582;2023-09-19T10:35:11;99951.60;;;21.70
69435;BMP180;56625;54.322;18.582;2023-09-19T10:37:44;99943.00;;;21.60
69435;BMP180;56625;54.322;18.582;2023-09-19T10:40:19;99934.80;;;21.60
69435;BMP180;56625;54.322;18.582;2023-09-19T10:42:49;99932.80;;;21.60
69435;BMP180;56625;54.322;18.582;2023-09-19T10:45:18;99938.40;;;21.60
69435;BMP180;56625;54.322;18.582;2023-09-19T10:47:47;99931.20;;;21.60
69435;BMP180;56625;54.322;18.582;2023-09-19T10:50:21;99926.20;;;21.80
69435;BMP180;56625;54.322;18.582;2023-09-19T10:52:54;99937.20;;;22.10
69435;BMP180;56625;54.322;18.582;2023-09-19T10:55:36;99923.60;;;22.30
69435;BMP180;56625;54.322;18.582;2023-09-19T10:58:05;99926.60;;;22.50
69435;BMP180;56625;54.322;18.582;2023-09-19T11:00:57;99923.60;;;22.50
69435;BMP180;56625;54.322;18.582;2023-09-19T11:03:33;99921.80;;;22.70
69435;BMP180;56625;54.322;18.582;2023-09-19T11:06:09;99920.80;;;22.90
69435;BMP180;56625;54.322;18.582;2023-09-19T11:08:57;99924.60;;;22.90
69435;BMP180;56625;54.322;18.582;2023-09-19T11:11:43;99935.40;;;22.80
69435;BMP180;56625;54.322;18.582;2023-09-19T11:30:51;99939.40;;;22.50
69435;BMP180;56625;54.322;18.582;2023-09-19T11:33:24;99943.80;;;22.60
69435;BMP180;56625;54.322;18.582;2023-09-19T11:36:12;99943.20;;;22.70
69435;BMP180;56625;54.322;18.582;2023-09-19T11:46:30;99946.60;;;22.60
69435;BMP180;56625;54.322;18.582;2023-09-19T11:49:09;99944.00;;;22.60
69435;BMP180;56625;54.322;18.582;2023-09-19T11:51:42;99956.40;;;22.70
69435;BMP180;56625;54.322;18.582;2023-09-19T11:54:13;99962.20;;;22.66
69435;BMP180;56625;54.322;18.582;2023-09-19T11:56:52;99963.40;;;22.50
69435;BMP180;56625;54.322;18.582;2023-09-19T11:59:29;99969.80;;;22.50
69435;BMP180;56625;54.322;18.582;2023-09-19T12:02:04;99970.40;;;22.60
69435;BMP180;56625;54.322;18.582;2023-09-19T12:04:41;99970.00;;;22.62
69435;BMP180;56625;54.322;18.582;2023-09-19T12:07:14;99980.00;;;22.80
69435;BMP180;56625;54.322;18.582;2023-09-19T12:10:03;99977.00;;;22.94
69435;BMP180;56625;54.322;18.582;2023-09-19T12:12:32;99980.60;;;23.10
69435;BMP180;56625;54.322;18.582;2023-09-19T12:15:04;99974.00;;;23.10
69435;BMP180;56625;54.322;18.582;2023-09-19T12:17:37;99973.00;;;23.10
69435;BMP180;56625;54.322;18.582;2023-09-19T12:20:07;99983.60;;;23.10
69435;BMP180;56625;54.322;18.582;2023-09-19T12:22:44;99983.20;;;22.88
69435;BMP180;56625;54.322;18.582;2023-09-19T12:25:16;99987.00;;;22.70
69435;BMP180;56625;54.322;18.582;2023-09-19T12:27:49;99994.20;;;22.60
69435;BMP180;56625;54.322;18.582;2023-09-19T12:30:28;100002.20;;;22.60
69435;BMP180;56625;54.322;18.582;2023-09-19T12:32:57;100008.60;;;22.50
69435;BMP180;56625;54.322;18.582;2023-09-19T12:35:31;100012.80;;;22.40
69435;BMP180;56625;54.322;18.582;2023-09-19T12:38:03;100016.00;;;22.30
69435;BMP180;56625;54.322;18.582;2023-09-19T12:40:32;100015.80;;;22.24
69435;BMP180;56625;54.322;18.582;2023-09-19T12:43:02;100015.60;;;22.26
69435;BMP180;56625;54.322;18.582;2023-09-19T12:45:32;100021.80;;;22.30
69435;BMP180;56625;54.322;18.582;2023-09-19T12:48:19;100023.20;;;22.26
69435;BMP180;56625;54.322;18.582;2023-09-19T12:51:11;100026.00;;;22.40
69435;BMP180;56625;54.322;18.582;2023-09-19T12:53:45;100021.00;;;22.56
69435;BMP180;56625;54.322;18.582;2023-09-19T12:56:17;100021.00;;;22.70
69435;BMP180;56625;54.322;18.582;2023-09-19T12:58:57;100023.40;;;22.70
69435;BMP180;56625;54.322;18.582;2023-09-19T13:01:31;100024.20;;;22.60
69435;BMP180;56625;54.322;18.582;2023-09-19T13:04:20;100028.20;;;22.46
69435;BMP180;56625;54.322;18.582;2023-09-19T13:06:56;100029.20;;;22.30
69435;BMP180;56625;54.322;18.582;2023-09-19T13:09:29;100031.00;;;22.20
69435;BMP180;56625;54.322;18.582;2023-09-19T13:12:05;100031.00;;;22.00
69435;BMP180;56625;54.322;18.582;2023-09-19T13:15:15;100033.20;;;22.00
69435;BMP180;56625;54.322;18.582;2023-09-19T13:17:54;100043.80;;;21.90
69435;BMP180;56625;54.322;18.582;2023-09-19T13:20:27;100030.80;;;21.90
69435;BMP180;56625;54.322;18.582;2023-09-19T13:23:00;100028.80;;;22.00
69435;BMP180;56625;54.322;18.582;2023-09-19T13:25:34;100023.20;;;22.06
69435;BMP180;56625;54.322;18.582;2023-09-19T13:28:18;100026.80;;;22.00
69435;BMP180;56625;54.322;18.582;2023-09-19T13:30:46;100026.60;;;21.90
69435;BMP180;56625;54.322;18.582;2023-09-19T13:33:15;100023.80;;;21.96
69435;BMP180;56625;54.322;18.582;2023-09-19T13:35:48;100023.20;;;22.10
69435;BMP180;56625;54.322;18.582;2023-09-19T13:38:16;100027.40;;;22.20
69435;BMP180;56625;54.322;18.582;2023-09-19T13:40:46;100023.80;;;22.40
69435;BMP180;56625;54.322;18.582;2023-09-19T13:43:15;100034.60;;;22.50
69435;BMP180;56625;54.322;18.582;2023-09-19T13:45:44;100027.80;;;22.60
69435;BMP180;56625;54.322;18.582;2023-09-19T13:48:11;100034.20;;;22.60
69435;BMP180;56625;54.322;18.582;2023-09-19T13:50:41;100032.80;;;22.70
69435;BMP180;56625;54.322;18.582;2023-09-19T13:53:10;100036.80;;;22.84
69435;BMP180;56625;54.322;18.582;2023-09-19T13:55:39;100042.40;;;22.88
69435;BMP180;56625;54.322;18.582;2023-09-19T13:58:08;100037.20;;;22.90
69435;BMP180;56625;54.322;18.582;2023-09-19T14:00:38;100041.80;;;22.80
69435;BMP180;56625;54.322;18.582;2023-09-19T14:03:06;100041.20;;;22.60
69435;BMP180;56625;54.322;18.582;2023-09-19T14:05:36;100051.20;;;22.50
69435;BMP180;56625;54.322;18.582;2023-09-19T14:08:05;100052.40;;;22.50
69435;BMP180;56625;54.322;18.582;2023-09-19T14:10:33;100053.20;;;22.50
69435;BMP180;56625;54.322;18.582;2023-09-19T14:13:04;100051.80;;;22.40
69435;BMP180;56625;54.322;18.582;2023-09-19T14:15:36;100058.40;;;22.22
69435;BMP180;56625;54.322;18.582;2023-09-19T14:18:07;100062.80;;;22.10
69435;BMP180;56625;54.322;18.582;2023-09-19T14:20:38;100069.60;;;22.00
69435;BMP180;56625;54.322;18.582;2023-09-19T14:23:10;100075.20;;;21.90
69435;BMP180;56625;54.322;18.582;2023-09-19T14:25:38;100077.80;;;21.76
69435;BMP180;56625;54.322;18.582;2023-09-19T14:28:09;100084.60;;;21.62
69435;BMP180;56625;54.322;18.582;2023-09-19T14:30:37;100088.60;;;21.60
69435;BMP180;56625;54.322;18.582;2023-09-19T14:33:06;100097.60;;;21.50
69435;BMP180;56625;54.322;18.582;2023-09-19T14:35:37;100101.60;;;21.50
69435;BMP180;56625;54.322;18.582;2023-09-19T14:38:05;100102.40;;;21.50
69435;BMP180;56625;54.322;18.582;2023-09-19T14:40:34;100107.60;;;21.46
69435;BMP180;56625;54.322;18.582;2023-09-19T14:43:06;100107.40;;;21.40
69435;BMP180;56625;54.322;18.582;2023-09-19T14:45:36;100114.80;;;21.46
69435;BMP180;56625;54.322;18.582;2023-09-19T14:48:05;100111.40;;;21.50
69435;BMP180;56625;54.322;18.582;2023-09-19T14:50:33;100118.80;;;21.60
69435;BMP180;56625;54.322;18.582;2023-09-19T14:53:02;100117.80;;;21.60
69435;BMP180;56625;54.322;18.582;2023-09-19T14:55:31;100117.00;;;21.60